createdAt,value
2023-11-23T00:02:07.431Z,-0.10
2023-11-23T00:04:35.751Z,-0.10
2023-11-23T00:07:03.857Z,-0.10
2023-11-23T00:09:31.879Z,-0.10
2023-11-23T00:11:59.566Z,-0.10
2023-11-23T00:14:32.237Z,-0.10
2023-11-23T00:17:00.168Z,0.00
2023-11-23T00:19:28.387Z,0.00
2023-11-23T00:21:56.979Z,0.00
2023-11-23T00:24:25.660Z,0.00
2023-11-23T00:26:55.198Z,0.00
2023-11-23T00:29:23.304Z,0.00
2023-11-23T00:31:51.236Z,0.00
2023-11-23T00:34:19.494Z,0.00
2023-11-23T00:36:47.128Z,0.10
2023-11-23T00:39:15.272Z,0.10
2023-11-23T00:41:43.237Z,0.10
2023-11-23T00:44:11.776Z,0.20
2023-11-23T00:46:40.369Z,0.20
2023-11-23T00:49:09.988Z,0.20
2023-11-23T00:51:38.304Z,0.20
2023-11-23T00:54:07.656Z,0.20
2023-11-23T00:56:35.407Z,0.20
2023-11-23T00:59:03.565Z,0.20
2023-11-23T01:01:31.413Z,0.20
2023-11-23T01:03:59.623Z,0.20
2023-11-23T01:06:28.370Z,0.20
2023-11-23T01:08:56.618Z,0.20
2023-11-23T01:11:25.498Z,0.30
2023-11-23T01:13:53.744Z,0.30
2023-11-23T01:16:21.611Z,0.30
2023-11-23T01:18:49.644Z,0.30
2023-11-23T01:21:17.460Z,0.30
2023-11-23T01:23:45.577Z,0.20
2023-11-23T01:26:14.211Z,0.30
2023-11-23T01:28:42.428Z,0.30
2023-11-23T01:31:10.767Z,0.30
2023-11-23T01:33:39.173Z,0.30
2023-11-23T01:36:07.968Z,0.30
2023-11-23T01:38:36.222Z,0.30
2023-11-23T01:41:04.616Z,0.30
2023-11-23T01:43:33.110Z,0.30
2023-11-23T01:46:00.675Z,0.30
2023-11-23T01:48:32.600Z,0.30
2023-11-23T01:51:01.194Z,0.30
2023-11-23T01:53:30.131Z,0.30
2023-11-23T01:56:00.101Z,0.40
2023-11-23T01:58:29.814Z,0.40
2023-11-23T02:00:57.815Z,0.40
2023-11-23T02:03:25.925Z,0.50
2023-11-23T02:05:53.685Z,0.50
2023-11-23T02:08:21.912Z,0.50
2023-11-23T02:10:49.658Z,0.60
2023-11-23T02:13:17.846Z,0.60
2023-11-23T02:15:45.933Z,0.60
2023-11-23T02:18:14.467Z,0.70
2023-11-23T02:20:47.974Z,0.70
2023-11-23T02:23:16.480Z,0.70
2023-11-23T02:25:44.212Z,0.70
2023-11-23T02:28:12.396Z,0.70
2023-11-23T02:30:40.137Z,0.70
2023-11-23T02:33:10.227Z,0.70
2023-11-23T02:35:38.279Z,0.70
2023-11-23T02:38:07.869Z,0.80
2023-11-23T02:40:35.623Z,0.80
2023-11-23T02:43:08.005Z,0.80
2023-11-23T02:45:36.212Z,0.80
2023-11-23T02:48:06.478Z,0.80
2023-11-23T02:50:35.281Z,0.90
2023-11-23T02:53:03.244Z,1.00
2023-11-23T02:55:31.798Z,1.00
2023-11-23T02:58:00.012Z,1.00
2023-11-23T03:00:27.839Z,1.00
2023-11-23T03:02:56.624Z,1.00
2023-11-23T03:05:24.503Z,1.10
2023-11-23T03:07:52.409Z,1.10
2023-11-23T03:10:20.224Z,1.10
2023-11-23T03:12:48.324Z,1.10
2023-11-23T03:15:16.219Z,1.20
2023-11-23T03:17:45.922Z,1.20
2023-11-23T03:20:13.733Z,1.20
2023-11-23T03:22:42.491Z,1.30
2023-11-23T03:25:10.682Z,1.40
2023-11-23T03:27:39.487Z,1.40
2023-11-23T03:30:07.738Z,1.40
2023-11-23T03:32:36.066Z,1.40
2023-11-23T03:35:05.261Z,1.40
2023-11-23T03:37:33.362Z,1.40
2023-11-23T03:40:00.945Z,1.40
2023-11-23T03:42:29.223Z,1.40
2023-11-23T03:44:56.925Z,1.50
2023-11-23T03:47:25.041Z,1.50
2023-11-23T03:49:53.081Z,1.50
2023-11-23T03:52:21.208Z,1.60
2023-11-23T03:54:48.992Z,1.60
2023-11-23T03:57:17.133Z,1.60
2023-11-23T03:59:44.944Z,1.60
2023-11-23T04:02:13.257Z,1.70
2023-11-23T04:04:41.149Z,1.70
2023-11-23T04:07:09.288Z,1.80
2023-11-23T04:09:36.992Z,1.80
2023-11-23T04:12:05.868Z,1.80
2023-11-23T04:14:33.940Z,1.80
2023-11-23T04:17:02.059Z,1.90
2023-11-23T04:19:30.028Z,1.90
2023-11-23T04:21:58.147Z,1.90
2023-11-23T04:24:26.398Z,2.00
2023-11-23T04:26:54.832Z,2.00
2023-11-23T04:29:22.500Z,2.00
2023-11-23T04:31:50.591Z,2.10
2023-11-23T04:34:18.391Z,2.10
2023-11-23T04:36:46.616Z,2.10
2023-11-23T04:39:14.368Z,2.10
2023-11-23T04:41:42.864Z,2.10
2023-11-23T04:44:10.603Z,2.20
2023-11-23T04:46:38.878Z,2.20
2023-11-23T04:49:06.826Z,2.20
2023-11-23T04:51:35.031Z,2.30
2023-11-23T04:54:03.986Z,2.30
2023-11-23T04:56:32.623Z,2.30
2023-11-23T04:59:00.417Z,2.30
2023-11-23T05:01:28.437Z,2.30
2023-11-23T05:03:56.197Z,2.40
2023-11-23T05:06:24.894Z,2.40
2023-11-23T05:08:52.636Z,2.40
2023-11-23T05:11:20.896Z,2.40
2023-11-23T05:13:48.599Z,2.40
2023-11-23T05:16:16.658Z,2.40
2023-11-23T05:18:44.689Z,2.40
2023-11-23T05:21:13.036Z,2.50
2023-11-23T05:23:40.644Z,2.40
2023-11-23T05:26:08.872Z,2.40
2023-11-23T05:28:36.679Z,2.40
2023-11-23T05:31:05.105Z,2.50
2023-11-23T05:33:33.101Z,2.50
2023-11-23T05:36:01.252Z,2.50
2023-11-23T05:38:28.987Z,2.50
2023-11-23T05:40:57.077Z,2.50
2023-11-23T05:43:25.639Z,2.50
2023-11-23T05:45:53.718Z,2.50
2023-11-23T05:48:21.358Z,2.50
2023-11-23T05:50:49.808Z,2.50
2023-11-23T05:53:17.613Z,2.50
2023-11-23T05:55:46.061Z,2.50
2023-11-23T05:58:13.927Z,2.50
2023-11-23T06:00:43.401Z,2.50
2023-11-23T06:03:11.214Z,2.50
2023-11-23T06:05:39.389Z,2.50
2023-11-23T06:08:07.297Z,2.50
2023-11-23T06:10:35.464Z,2.50
2023-11-23T06:13:03.182Z,2.50
2023-11-23T06:15:31.514Z,2.50
2023-11-23T06:18:07.691Z,2.50
2023-11-23T06:20:41.960Z,2.50
2023-11-23T06:23:11.859Z,2.50
2023-11-23T06:25:40.686Z,2.50
2023-11-23T06:28:14.945Z,2.50
2023-11-23T06:30:46.540Z,2.50
2023-11-23T06:33:15.342Z,2.50
2023-11-23T06:35:43.539Z,2.50
2023-11-23T06:38:11.231Z,2.50
2023-11-23T06:40:39.235Z,2.50
2023-11-23T06:43:07.389Z,2.50
2023-11-23T06:45:35.509Z,2.50
2023-11-23T06:48:03.462Z,2.50
2023-11-23T06:50:31.914Z,2.50
2023-11-23T06:53:00.139Z,2.60
2023-11-23T06:55:28.225Z,2.70
2023-11-23T06:57:56.114Z,2.70
2023-11-23T07:00:24.423Z,2.70
2023-11-23T07:02:58.768Z,2.70
2023-11-23T07:05:27.890Z,2.70
2023-11-23T07:07:56.550Z,2.80
2023-11-23T07:10:25.105Z,2.80
2023-11-23T07:12:53.153Z,2.90
2023-11-23T07:15:25.355Z,2.90
2023-11-23T07:17:53.452Z,3.00
2023-11-23T07:20:21.724Z,3.00
2023-11-23T07:22:49.396Z,3.10
2023-11-23T07:25:18.611Z,3.10
2023-11-23T07:27:46.373Z,3.10
2023-11-23T07:30:14.933Z,3.10
2023-11-23T07:32:42.981Z,3.10
2023-11-23T07:35:11.133Z,3.20
2023-11-23T07:37:38.777Z,3.30
2023-11-23T07:40:15.050Z,3.30
2023-11-23T07:42:44.745Z,3.30
2023-11-23T07:45:13.853Z,3.20
2023-11-23T07:47:45.556Z,3.20
2023-11-23T07:50:17.510Z,3.10
2023-11-23T07:52:48.232Z,3.10
2023-11-23T07:55:19.368Z,3.10
2023-11-23T07:57:50.340Z,3.10
2023-11-23T08:00:21.922Z,3.20
2023-11-23T08:02:50.056Z,3.30
2023-11-23T08:05:19.316Z,3.30
2023-11-23T08:07:48.364Z,3.30
2023-11-23T08:10:17.071Z,3.40
2023-11-23T08:12:45.502Z,3.50
2023-11-23T08:15:14.611Z,3.50
2023-11-23T08:17:54.125Z,3.50
2023-11-23T08:20:30.456Z,3.60
2023-11-23T08:22:58.825Z,3.60
2023-11-23T08:25:27.038Z,3.70
2023-11-23T08:27:55.176Z,3.90
2023-11-23T08:30:23.711Z,3.90
2023-11-23T08:32:51.783Z,4.00
2023-11-23T08:35:20.138Z,4.10
2023-11-23T08:37:48.126Z,4.20
2023-11-23T08:40:16.414Z,4.30
2023-11-23T08:42:44.545Z,4.40
2023-11-23T08:45:12.730Z,4.40
2023-11-23T08:47:40.540Z,4.50
2023-11-23T08:50:10.595Z,4.70
2023-11-23T08:52:39.463Z,4.80
2023-11-23T08:55:10.430Z,4.80
2023-11-23T08:57:38.870Z,4.90
2023-11-23T09:00:13.411Z,5.20
2023-11-23T09:02:41.484Z,5.20
2023-11-23T09:05:11.123Z,5.10
2023-11-23T09:07:40.524Z,5.30
2023-11-23T09:10:09.554Z,6.00
2023-11-23T09:12:52.576Z,6.10
2023-11-23T09:15:21.189Z,6.00
2023-11-23T09:17:49.567Z,5.80
2023-11-23T09:20:18.239Z,5.80
2023-11-23T09:22:46.019Z,5.80
2023-11-23T09:25:14.673Z,5.80
2023-11-23T09:27:42.329Z,5.60
2023-11-23T09:30:13.537Z,5.50
2023-11-23T09:32:41.424Z,5.50
2023-11-23T09:35:12.024Z,5.50
2023-11-23T09:37:41.094Z,5.60
2023-11-23T09:40:10.936Z,5.60
2023-11-23T09:42:40.432Z,5.60
2023-11-23T09:45:12.497Z,5.70
2023-11-23T09:47:41.047Z,5.90
2023-11-23T09:50:13.088Z,6.70
2023-11-23T09:52:42.169Z,7.50
2023-11-23T09:55:11.984Z,7.80
2023-11-23T09:57:39.831Z,8.10
2023-11-23T10:00:11.332Z,8.10
2023-11-23T10:02:39.365Z,7.70
2023-11-23T10:05:10.606Z,7.50
2023-11-23T10:07:38.556Z,7.50
2023-11-23T10:10:07.369Z,7.40
2023-11-23T10:12:35.144Z,7.40
2023-11-23T10:15:04.316Z,7.20
2023-11-23T10:17:32.397Z,7.00
2023-11-23T10:20:10.348Z,7.10
2023-11-23T10:22:39.141Z,7.20
2023-11-23T10:25:07.959Z,7.20
2023-11-23T10:27:38.225Z,7.00
2023-11-23T10:30:07.741Z,7.50
2023-11-23T10:32:37.134Z,8.00
2023-11-23T10:35:11.276Z,8.30
2023-11-23T10:37:40.277Z,8.20
2023-11-23T10:40:13.072Z,7.80
2023-11-23T10:42:41.815Z,7.80
2023-11-23T10:45:14.231Z,7.80
2023-11-23T10:47:43.654Z,7.80
2023-11-23T10:50:12.693Z,7.60
2023-11-23T10:52:45.443Z,7.50
2023-11-23T10:55:14.900Z,7.60
2023-11-23T10:58:05.804Z,7.60
2023-11-23T11:00:34.490Z,7.50
2023-11-23T11:03:06.714Z,8.00
2023-11-23T11:05:46.578Z,8.30
2023-11-23T11:08:22.479Z,8.30
2023-11-23T11:10:52.800Z,8.30
2023-11-23T11:13:25.096Z,8.20
2023-11-23T11:16:09.071Z,8.60
2023-11-23T11:18:37.680Z,8.60
2023-11-23T11:21:14.249Z,8.30
2023-11-23T11:23:51.910Z,8.00
2023-11-23T11:26:28.926Z,7.80
2023-11-23T11:28:59.467Z,7.60
2023-11-23T11:31:38.056Z,7.50
2023-11-23T11:34:18.857Z,7.50
2023-11-23T11:37:08.771Z,7.40
2023-11-23T11:39:39.048Z,7.30
2023-11-23T11:42:15.658Z,7.20
2023-11-23T11:44:50.415Z,7.20
2023-11-23T11:47:19.188Z,7.20
2023-11-23T11:49:51.101Z,7.30
2023-11-23T11:52:19.468Z,7.30
2023-11-23T11:54:48.910Z,7.50
2023-11-23T11:57:19.923Z,7.50
2023-11-23T11:59:48.265Z,7.50
2023-11-23T12:02:16.753Z,7.50
2023-11-23T12:04:44.667Z,7.60
2023-11-23T12:07:16.372Z,7.60
2023-11-23T12:09:47.041Z,7.60
2023-11-23T12:12:17.325Z,7.60
2023-11-23T12:14:47.055Z,7.60
2023-11-23T12:17:15.466Z,7.50
2023-11-23T12:19:53.584Z,7.50
2023-11-23T12:22:24.731Z,7.50
2023-11-23T12:24:53.526Z,7.50
2023-11-23T12:27:22.680Z,7.50
2023-11-23T12:29:50.602Z,7.40
2023-11-23T12:32:18.805Z,7.20
2023-11-23T12:34:46.690Z,7.20
2023-11-23T12:37:16.043Z,7.10
2023-11-23T12:39:48.989Z,7.00
2023-11-23T12:42:18.279Z,7.00
2023-11-23T12:44:47.871Z,6.90
2023-11-23T12:47:16.391Z,6.80
2023-11-23T12:49:44.430Z,6.70
2023-11-23T12:52:12.555Z,6.60
2023-11-23T12:54:42.509Z,6.50
2023-11-23T12:57:10.900Z,6.40
2023-11-23T12:59:38.625Z,6.40
2023-11-23T13:02:06.932Z,6.30
2023-11-23T13:04:36.351Z,6.30
2023-11-23T13:07:04.909Z,6.30
2023-11-23T13:09:35.366Z,6.20
2023-11-23T13:12:06.735Z,6.20
2023-11-23T13:14:35.212Z,6.20
2023-11-23T13:17:04.297Z,6.10
2023-11-23T13:19:39.974Z,6.10
2023-11-23T13:22:11.409Z,6.10
2023-11-23T13:24:40.081Z,6.10
2023-11-23T13:27:09.678Z,6.00
2023-11-23T13:29:39.023Z,6.00
2023-11-23T13:32:08.105Z,6.00
2023-11-23T13:34:37.787Z,6.00
2023-11-23T13:37:06.149Z,6.00
2023-11-23T13:39:37.433Z,6.00
2023-11-23T13:42:06.755Z,6.00
2023-11-23T13:44:35.777Z,6.00
2023-11-23T13:47:05.792Z,6.00
2023-11-23T13:49:34.020Z,6.00
2023-11-23T13:52:04.362Z,6.10
2023-11-23T13:54:32.260Z,6.10
2023-11-23T13:57:01.934Z,6.10
2023-11-23T13:59:30.140Z,6.10
2023-11-23T14:01:59.820Z,6.10
2023-11-23T14:04:28.205Z,6.10
2023-11-23T14:06:58.849Z,6.10
2023-11-23T14:09:29.747Z,6.10
2023-11-23T14:11:58.411Z,6.10
2023-11-23T14:14:26.348Z,6.10
2023-11-23T14:16:54.871Z,6.00
2023-11-23T14:19:22.778Z,6.00
2023-11-23T14:21:55.656Z,6.00
2023-11-23T14:24:23.628Z,6.00
2023-11-23T14:26:52.485Z,5.90
2023-11-23T14:29:20.602Z,5.90
2023-11-23T14:31:53.076Z,5.90
2023-11-23T14:34:25.413Z,5.90
2023-11-23T14:36:56.761Z,6.00
2023-11-23T14:39:29.077Z,6.00
2023-11-23T14:41:58.475Z,6.00
2023-11-23T14:44:26.630Z,6.00
2023-11-23T14:46:55.549Z,6.00
2023-11-23T14:49:24.449Z,6.00
2023-11-23T14:51:54.723Z,6.00
2023-11-23T14:54:31.888Z,6.00
2023-11-23T14:57:07.263Z,6.00
2023-11-23T14:59:37.516Z,5.90
2023-11-23T15:02:05.972Z,5.90
2023-11-23T15:04:35.395Z,5.90
2023-11-23T15:07:04.009Z,5.90
2023-11-23T15:09:32.031Z,5.90
2023-11-23T15:12:01.391Z,5.90
2023-11-23T15:14:29.128Z,6.00
2023-11-23T15:16:57.639Z,6.00
2023-11-23T15:19:25.538Z,6.00
2023-11-23T15:21:53.907Z,6.00
2023-11-23T15:24:22.702Z,6.00
2023-11-23T15:26:51.063Z,6.00
2023-11-23T15:29:19.350Z,6.00
2023-11-23T15:31:47.885Z,6.00
2023-11-23T15:34:15.568Z,6.00
2023-11-23T15:36:43.990Z,6.00
2023-11-23T15:39:14.992Z,6.10
2023-11-23T15:41:43.223Z,6.00
2023-11-23T15:44:11.869Z,6.10
2023-11-23T15:46:43.164Z,6.10
2023-11-23T15:49:12.751Z,6.10
2023-11-23T15:51:42.052Z,6.00
2023-11-23T15:54:10.238Z,6.10
2023-11-23T15:56:38.395Z,6.10
2023-11-23T15:59:08.774Z,6.00
2023-11-23T16:01:37.733Z,6.00
2023-11-23T16:04:05.929Z,6.00
2023-11-23T16:06:38.651Z,6.00
2023-11-23T16:09:13.539Z,6.00
2023-11-23T16:11:45.627Z,6.00
2023-11-23T16:14:13.884Z,6.00
2023-11-23T16:16:43.072Z,6.00
2023-11-23T16:19:12.263Z,6.00
2023-11-23T16:21:41.877Z,6.10
2023-11-23T16:24:12.625Z,6.10
2023-11-23T16:26:40.967Z,6.20
2023-11-23T16:29:12.221Z,6.20
2023-11-23T16:31:46.618Z,6.30
2023-11-23T16:34:16.664Z,6.30
2023-11-23T16:36:47.187Z,6.40
2023-11-23T16:39:16.860Z,6.50
2023-11-23T16:41:45.770Z,6.60
2023-11-23T16:44:16.027Z,6.70
2023-11-23T16:46:45.373Z,6.90
2023-11-23T16:49:13.491Z,7.00
2023-11-23T16:51:42.042Z,7.20
2023-11-23T16:54:10.709Z,7.40
2023-11-23T16:56:39.232Z,7.50
2023-11-23T16:59:10.778Z,7.50
2023-11-23T17:01:40.127Z,7.60
2023-11-23T17:04:08.126Z,7.70
2023-11-23T17:06:41.474Z,7.80
2023-11-23T17:09:11.567Z,7.80
2023-11-23T17:11:40.530Z,7.90
2023-11-23T17:14:11.795Z,8.00
2023-11-23T17:16:41.177Z,8.00
2023-11-23T17:19:09.064Z,8.00
2023-11-23T17:21:37.433Z,8.00
2023-11-23T17:24:07.385Z,8.00
2023-11-23T17:26:35.542Z,8.00
2023-11-23T17:29:03.330Z,8.00
2023-11-23T17:31:32.741Z,8.00
2023-11-23T17:34:02.254Z,8.00
2023-11-23T17:36:31.879Z,8.10
2023-11-23T17:39:02.164Z,8.10
2023-11-23T17:41:31.948Z,8.10
2023-11-23T17:44:00.095Z,8.10
2023-11-23T17:46:28.369Z,8.20
2023-11-23T17:48:56.178Z,8.20
2023-11-23T17:51:25.319Z,8.20
2023-11-23T17:53:53.148Z,8.20
2023-11-23T17:56:21.350Z,8.20
2023-11-23T17:58:49.138Z,8.20
2023-11-23T18:01:18.680Z,8.20
2023-11-23T18:03:46.899Z,8.20
2023-11-23T18:06:15.224Z,8.30
2023-11-23T18:08:43.095Z,8.30
2023-11-23T18:11:11.495Z,8.30
2023-11-23T18:13:39.848Z,8.30
2023-11-23T18:16:09.001Z,8.30
2023-11-23T18:18:37.548Z,8.30
2023-11-23T18:21:06.221Z,8.30
2023-11-23T18:23:34.461Z,8.40
2023-11-23T18:26:03.564Z,8.40
2023-11-23T18:28:31.706Z,8.40
2023-11-23T18:31:02.051Z,8.40
2023-11-23T18:33:34.428Z,8.40
2023-11-23T18:36:05.649Z,8.50
2023-11-23T18:38:36.401Z,8.50
2023-11-23T18:41:09.127Z,8.50
2023-11-23T18:43:37.974Z,8.50
2023-11-23T18:46:08.816Z,8.50
2023-11-23T18:48:37.032Z,8.50
2023-11-23T18:51:05.719Z,8.50
2023-11-23T18:53:33.574Z,8.60
2023-11-23T18:56:02.020Z,8.60
2023-11-23T18:58:29.851Z,8.60
2023-11-23T19:00:58.579Z,8.50
2023-11-23T19:03:28.930Z,8.60
2023-11-23T19:06:01.463Z,8.60
2023-11-23T19:08:29.514Z,8.60
2023-11-23T19:10:59.158Z,8.60
2023-11-23T19:13:29.741Z,8.60
2023-11-23T19:15:58.273Z,8.60
2023-11-23T19:18:26.807Z,8.60
2023-11-23T19:20:55.727Z,8.60
2023-11-23T19:23:23.910Z,8.60
2023-11-23T19:25:52.430Z,8.70
2023-11-23T19:28:20.387Z,8.80
2023-11-23T19:30:52.762Z,8.80
2023-11-23T19:33:25.455Z,8.80
2023-11-23T19:35:55.883Z,8.80
2023-11-23T19:38:24.385Z,8.90
2023-11-23T19:40:55.190Z,8.90
2023-11-23T19:43:24.955Z,9.00
2023-11-23T19:45:54.559Z,9.00
2023-11-23T19:48:25.485Z,9.00
2023-11-23T19:50:55.127Z,9.00
2023-11-23T19:53:27.718Z,9.00
2023-11-23T19:55:57.062Z,9.00
2023-11-23T19:58:26.115Z,9.00
2023-11-23T20:00:55.101Z,9.00
2023-11-23T20:03:23.920Z,9.10
2023-11-23T20:05:54.135Z,9.10
2023-11-23T20:08:23.528Z,9.20
2023-11-23T20:10:53.561Z,9.20
2023-11-23T20:13:23.818Z,9.20
2023-11-23T20:15:52.579Z,9.20
2023-11-23T20:18:22.228Z,9.20
2023-11-23T20:20:51.811Z,9.20
2023-11-23T20:23:20.403Z,9.20
2023-11-23T20:25:49.994Z,9.20
2023-11-23T20:28:18.005Z,9.20
2023-11-23T20:30:46.755Z,9.20
2023-11-23T20:33:17.696Z,9.20
2023-11-23T20:35:48.904Z,9.20
2023-11-23T20:38:17.179Z,9.20
2023-11-23T20:40:46.367Z,9.20
2023-11-23T20:43:15.230Z,9.20
2023-11-23T20:45:44.182Z,9.20
2023-11-23T20:48:13.061Z,9.30
2023-11-23T20:50:41.368Z,9.40
2023-11-23T20:53:09.504Z,9.40
2023-11-23T20:55:38.233Z,9.40
2023-11-23T20:58:06.896Z,9.40
2023-11-23T21:00:35.816Z,9.40
2023-11-23T21:03:03.984Z,9.40
2023-11-23T21:05:32.459Z,9.40
2023-11-23T21:08:01.333Z,9.40
2023-11-23T21:10:30.185Z,9.40
2023-11-23T21:12:58.286Z,9.40
2023-11-23T21:15:26.440Z,9.40
2023-11-23T21:17:54.586Z,9.40
2023-11-23T21:20:22.821Z,9.40
2023-11-23T21:22:51.315Z,9.50
2023-11-23T21:25:20.335Z,9.50
2023-11-23T21:27:49.712Z,9.50
2023-11-23T21:30:20.489Z,9.50
2023-11-23T21:32:48.985Z,9.50
2023-11-23T21:35:17.447Z,9.50
2023-11-23T21:37:45.332Z,9.60
2023-11-23T21:40:14.450Z,9.60
2023-11-23T21:42:42.096Z,9.50
2023-11-23T21:45:10.570Z,9.60
2023-11-23T21:47:40.032Z,9.60
2023-11-23T21:50:09.080Z,9.60
2023-11-23T21:52:37.756Z,9.60
2023-11-23T21:55:07.440Z,9.60
2023-11-23T21:57:35.597Z,9.60
2023-11-23T22:00:04.704Z,9.60
2023-11-23T22:02:32.548Z,9.60
2023-11-23T22:05:00.888Z,9.60
2023-11-23T22:07:28.482Z,9.60
2023-11-23T22:09:57.101Z,9.70
2023-11-23T22:12:25.906Z,9.60
2023-11-23T22:14:54.222Z,9.50
2023-11-23T22:17:22.566Z,9.40
2023-11-23T22:19:51.644Z,9.30
2023-11-23T22:22:20.477Z,9.20
2023-11-23T22:24:48.897Z,9.10
2023-11-23T22:27:17.678Z,9.00
2023-11-23T22:29:46.075Z,9.00
2023-11-23T22:32:16.845Z,9.00
2023-11-23T22:34:45.043Z,8.90
2023-11-23T22:37:13.066Z,8.90
2023-11-23T22:39:41.507Z,8.80
2023-11-23T22:42:10.491Z,8.60
2023-11-23T22:44:38.866Z,8.50
2023-11-23T22:47:07.918Z,8.40
2023-11-23T22:49:36.217Z,8.30
2023-11-23T22:52:05.584Z,8.30
2023-11-23T22:54:35.443Z,8.20
2023-11-23T22:57:04.624Z,8.10
2023-11-23T22:59:32.853Z,8.00
2023-11-23T23:02:00.820Z,7.80
2023-11-23T23:04:29.099Z,7.80
2023-11-23T23:06:56.795Z,7.60
2023-11-23T23:09:28.433Z,7.50
2023-11-23T23:11:57.708Z,7.40
2023-11-23T23:14:29.806Z,7.40
2023-11-23T23:16:57.916Z,7.30
2023-11-23T23:19:26.067Z,7.20
2023-11-23T23:21:53.914Z,7.20
2023-11-23T23:24:22.080Z,7.10
2023-11-23T23:26:50.253Z,7.00
2023-11-23T23:29:18.651Z,7.00
2023-11-23T23:31:46.324Z,6.90
2023-11-23T23:34:15.792Z,6.80
2023-11-23T23:36:43.718Z,6.70
2023-11-23T23:39:11.783Z,6.60
2023-11-23T23:41:39.722Z,6.60
2023-11-23T23:44:08.283Z,6.50
2023-11-23T23:46:36.138Z,6.50
2023-11-23T23:49:04.458Z,6.40
2023-11-23T23:51:33.497Z,6.40
2023-11-23T23:54:01.726Z,6.30
2023-11-23T23:56:29.504Z,6.30
2023-11-23T23:58:57.748Z,6.30
